sensor_id;sensor_type;location;lat;lon;timestamp;pressure;altitude;pressure_sealevel;temperature
73937;BMP180;59249;59.736;30.568;2022-11-03T00:01:48;101271.00;;;5.70
73937;BMP180;59249;59.736;30.568;2022-11-03T00:04:20;101274.00;;;5.70
73937;BMP180;59249;59.736;30.568;2022-11-03T00:06:51;101268.00;;;5.80
73937;BMP180;59249;59.736;30.568;2022-11-03T00:09:22;101271.00;;;5.80
73937;BMP180;59249;59.736;30.568;2022-11-03T00:11:53;101267.00;;;5.80
73937;BMP180;59249;59.736;30.568;2022-11-03T00:14:22;101281.00;;;5.80
73937;BMP180;59249;59.736;30.568;2022-11-03T00:20:01;101270.00;;;5.80
73937;BMP180;59249;59.736;30.568;2022-11-03T00:22:30;101279.00;;;5.70
73937;BMP180;59249;59.736;30.568;2022-11-03T00:24:59;101277.00;;;5.80
73937;BMP180;59249;59.736;30.568;2022-11-03T00:27:29;101281.00;;;5.80
73937;BMP180;59249;59.736;30.568;2022-11-03T00:29:58;101288.00;;;5.90
73937;BMP180;59249;59.736;30.568;2022-11-03T00:32:26;101281.00;;;5.90
73937;BMP180;59249;59.736;30.568;2022-11-03T00:34:55;101275.00;;;5.90
73937;BMP180;59249;59.736;30.568;2022-11-03T00:37:25;101272.00;;;5.80
73937;BMP180;59249;59.736;30.568;2022-11-03T00:39:54;101272.00;;;5.70
73937;BMP180;59249;59.736;30.568;2022-11-03T00:42:23;101275.00;;;5.70
73937;BMP180;59249;59.736;30.568;2022-11-03T00:44:52;101273.00;;;5.70
73937;BMP180;59249;59.736;30.568;2022-11-03T00:47:21;101267.00;;;5.80
73937;BMP180;59249;59.736;30.568;2022-11-03T00:49:50;101276.00;;;5.80
73937;BMP180;59249;59.736;30.568;2022-11-03T00:52:19;101273.00;;;5.80
73937;BMP180;59249;59.736;30.568;2022-11-03T00:54:49;101276.00;;;5.70
73937;BMP180;59249;59.736;30.568;2022-11-03T00:57:21;101281.00;;;5.70
73937;BMP180;59249;59.736;30.568;2022-11-03T00:59:50;101273.00;;;5.80
73937;BMP180;59249;59.736;30.568;2022-11-03T01:02:18;101280.00;;;5.70
73937;BMP180;59249;59.736;30.568;2022-11-03T01:04:47;101273.00;;;5.70
73937;BMP180;59249;59.736;30.568;2022-11-03T01:07:33;101273.00;;;5.70
73937;BMP180;59249;59.736;30.568;2022-11-03T01:10:04;101279.00;;;5.70
73937;BMP180;59249;59.736;30.568;2022-11-03T01:12:33;101274.00;;;5.70
73937;BMP180;59249;59.736;30.568;2022-11-03T01:15:02;101280.00;;;5.60
73937;BMP180;59249;59.736;30.568;2022-11-03T01:17:31;101281.00;;;5.60
73937;BMP180;59249;59.736;30.568;2022-11-03T01:20:00;101279.00;;;5.60
73937;BMP180;59249;59.736;30.568;2022-11-03T01:22:30;101278.00;;;5.70
73937;BMP180;59249;59.736;30.568;2022-11-03T01:24:58;101280.00;;;5.60
73937;BMP180;59249;59.736;30.568;2022-11-03T01:27:33;101280.00;;;5.60
73937;BMP180;59249;59.736;30.568;2022-11-03T01:30:03;101276.00;;;5.60
73937;BMP180;59249;59.736;30.568;2022-11-03T01:32:32;101283.00;;;5.60
73937;BMP180;59249;59.736;30.568;2022-11-03T01:35:02;101281.00;;;5.60
73937;BMP180;59249;59.736;30.568;2022-11-03T01:37:31;101278.00;;;5.60
73937;BMP180;59249;59.736;30.568;2022-11-03T01:40:00;101283.00;;;5.60
73937;BMP180;59249;59.736;30.568;2022-11-03T01:42:30;101281.00;;;5.60
73937;BMP180;59249;59.736;30.568;2022-11-03T01:44:59;101278.00;;;5.50
73937;BMP180;59249;59.736;30.568;2022-11-03T01:47:31;101279.00;;;5.50
73937;BMP180;59249;59.736;30.568;2022-11-03T01:50:04;101288.00;;;5.50
73937;BMP180;59249;59.736;30.568;2022-11-03T01:52:37;101285.00;;;5.50
73937;BMP180;59249;59.736;30.568;2022-11-03T01:55:14;101291.00;;;5.60
73937;BMP180;59249;59.736;30.568;2022-11-03T01:57:51;101292.00;;;5.60
73937;BMP180;59249;59.736;30.568;2022-11-03T02:00:23;101288.00;;;5.60
73937;BMP180;59249;59.736;30.568;2022-11-03T02:02:52;101296.00;;;5.60
73937;BMP180;59249;59.736;30.568;2022-11-03T02:05:23;101295.00;;;5.60
73937;BMP180;59249;59.736;30.568;2022-11-03T02:07:57;101290.00;;;5.50
73937;BMP180;59249;59.736;30.568;2022-11-03T02:10:31;101279.00;;;5.50
73937;BMP180;59249;59.736;30.568;2022-11-03T02:13:06;101283.00;;;5.50
73937;BMP180;59249;59.736;30.568;2022-11-03T02:16:00;101287.00;;;5.50
73937;BMP180;59249;59.736;30.568;2022-11-03T02:18:31;101291.00;;;5.40
73937;BMP180;59249;59.736;30.568;2022-11-03T02:21:11;101283.00;;;5.40
73937;BMP180;59249;59.736;30.568;2022-11-03T02:23:56;101286.00;;;5.40
73937;BMP180;59249;59.736;30.568;2022-11-03T02:26:30;101284.00;;;5.50
73937;BMP180;59249;59.736;30.568;2022-11-03T02:28:59;101280.00;;;5.40
73937;BMP180;59249;59.736;30.568;2022-11-03T02:31:32;101293.00;;;5.40
73937;BMP180;59249;59.736;30.568;2022-11-03T02:34:08;101286.00;;;5.40
73937;BMP180;59249;59.736;30.568;2022-11-03T02:36:46;101279.00;;;5.30
73937;BMP180;59249;59.736;30.568;2022-11-03T02:39:20;101278.00;;;5.30
73937;BMP180;59249;59.736;30.568;2022-11-03T02:41:55;101277.00;;;5.40
73937;BMP180;59249;59.736;30.568;2022-11-03T02:44:27;101283.00;;;5.40
73937;BMP180;59249;59.736;30.568;2022-11-03T02:46:59;101290.00;;;5.50
73937;BMP180;59249;59.736;30.568;2022-11-03T02:49:30;101290.00;;;5.40
73937;BMP180;59249;59.736;30.568;2022-11-03T02:52:05;101284.00;;;5.40
73937;BMP180;59249;59.736;30.568;2022-11-03T02:54:56;101281.00;;;5.40
73937;BMP180;59249;59.736;30.568;2022-11-03T02:57:31;101286.00;;;5.50
73937;BMP180;59249;59.736;30.568;2022-11-03T03:00:07;101287.00;;;5.40
73937;BMP180;59249;59.736;30.568;2022-11-03T03:02:41;101290.00;;;5.40
73937;BMP180;59249;59.736;30.568;2022-11-03T03:05:20;101289.00;;;5.30
73937;BMP180;59249;59.736;30.568;2022-11-03T03:07:55;101284.00;;;5.30
73937;BMP180;59249;59.736;30.568;2022-11-03T03:10:32;101290.00;;;5.20
73937;BMP180;59249;59.736;30.568;2022-11-03T03:13:06;101285.00;;;5.20
73937;BMP180;59249;59.736;30.568;2022-11-03T03:15:43;101288.00;;;5.30
73937;BMP180;59249;59.736;30.568;2022-11-03T03:18:23;101284.00;;;5.40
73937;BMP180;59249;59.736;30.568;2022-11-03T03:20:58;101284.00;;;5.30
73937;BMP180;59249;59.736;30.568;2022-11-03T03:23:34;101292.00;;;5.30
73937;BMP180;59249;59.736;30.568;2022-11-03T03:26:18;101289.00;;;5.30
73937;BMP180;59249;59.736;30.568;2022-11-03T03:28:55;101288.00;;;5.30
73937;BMP180;59249;59.736;30.568;2022-11-03T03:31:29;101293.00;;;5.40
73937;BMP180;59249;59.736;30.568;2022-11-03T03:34:04;101290.00;;;5.20
73937;BMP180;59249;59.736;30.568;2022-11-03T03:36:56;101290.00;;;5.30
73937;BMP180;59249;59.736;30.568;2022-11-03T03:39:29;101293.00;;;5.30
73937;BMP180;59249;59.736;30.568;2022-11-03T03:42:04;101298.00;;;5.30
73937;BMP180;59249;59.736;30.568;2022-11-03T03:44:37;101296.00;;;5.30
73937;BMP180;59249;59.736;30.568;2022-11-03T03:47:12;101306.00;;;5.40
73937;BMP180;59249;59.736;30.568;2022-11-03T03:49:47;101297.00;;;5.40
73937;BMP180;59249;59.736;30.568;2022-11-03T03:52:16;101298.00;;;5.30
73937;BMP180;59249;59.736;30.568;2022-11-03T03:54:46;101299.00;;;5.20
73937;BMP180;59249;59.736;30.568;2022-11-03T03:57:18;101301.00;;;5.20
73937;BMP180;59249;59.736;30.568;2022-11-03T03:59:49;101305.00;;;5.10
73937;BMP180;59249;59.736;30.568;2022-11-03T04:02:19;101311.00;;;5.00
73937;BMP180;59249;59.736;30.568;2022-11-03T04:04:47;101306.00;;;5.00
73937;BMP180;59249;59.736;30.568;2022-11-03T04:07:16;101307.00;;;5.10
73937;BMP180;59249;59.736;30.568;2022-11-03T04:10:10;101303.00;;;5.10
73937;BMP180;59249;59.736;30.568;2022-11-03T04:12:45;101301.00;;;5.00
73937;BMP180;59249;59.736;30.568;2022-11-03T04:15:33;101299.00;;;5.10
73937;BMP180;59249;59.736;30.568;2022-11-03T04:18:23;101302.00;;;5.10
73937;BMP180;59249;59.736;30.568;2022-11-03T04:21:11;101314.00;;;5.10
73937;BMP180;59249;59.736;30.568;2022-11-03T04:23:58;101308.00;;;5.00
73937;BMP180;59249;59.736;30.568;2022-11-03T04:26:28;101307.00;;;5.00
73937;BMP180;59249;59.736;30.568;2022-11-03T04:28:59;101307.00;;;5.00
73937;BMP180;59249;59.736;30.568;2022-11-03T04:31:31;101306.00;;;4.90
73937;BMP180;59249;59.736;30.568;2022-11-03T04:34:03;101306.00;;;4.90
73937;BMP180;59249;59.736;30.568;2022-11-03T04:36:37;101315.00;;;4.90
73937;BMP180;59249;59.736;30.568;2022-11-03T04:39:15;101305.00;;;4.80
73937;BMP180;59249;59.736;30.568;2022-11-03T04:41:48;101306.00;;;4.80
73937;BMP180;59249;59.736;30.568;2022-11-03T04:44:26;101306.00;;;4.80
73937;BMP180;59249;59.736;30.568;2022-11-03T04:46:58;101304.00;;;4.90
73937;BMP180;59249;59.736;30.568;2022-11-03T04:49:26;101307.00;;;4.90
73937;BMP180;59249;59.736;30.568;2022-11-03T04:51:57;101311.00;;;4.90
73937;BMP180;59249;59.736;30.568;2022-11-03T04:54:25;101308.00;;;5.00
73937;BMP180;59249;59.736;30.568;2022-11-03T04:56:55;101306.00;;;4.90
73937;BMP180;59249;59.736;30.568;2022-11-03T04:59:25;101303.00;;;5.00
73937;BMP180;59249;59.736;30.568;2022-11-03T05:01:54;101304.00;;;4.90
73937;BMP180;59249;59.736;30.568;2022-11-03T05:04:23;101307.00;;;4.90
73937;BMP180;59249;59.736;30.568;2022-11-03T05:06:52;101315.00;;;5.00
73937;BMP180;59249;59.736;30.568;2022-11-03T05:09:23;101312.00;;;5.00
73937;BMP180;59249;59.736;30.568;2022-11-03T05:11:56;101319.00;;;5.00
73937;BMP180;59249;59.736;30.568;2022-11-03T05:14:27;101318.00;;;4.90
73937;BMP180;59249;59.736;30.568;2022-11-03T05:16:59;101324.00;;;5.00
73937;BMP180;59249;59.736;30.568;2022-11-03T05:19:32;101320.00;;;4.90
73937;BMP180;59249;59.736;30.568;2022-11-03T05:22:04;101326.00;;;4.90
73937;BMP180;59249;59.736;30.568;2022-11-03T05:24:34;101327.00;;;5.00
73937;BMP180;59249;59.736;30.568;2022-11-03T05:27:05;101322.00;;;4.90
73937;BMP180;59249;59.736;30.568;2022-11-03T05:29:43;101327.00;;;5.00
73937;BMP180;59249;59.736;30.568;2022-11-03T05:32:17;101322.00;;;5.00
73937;BMP180;59249;59.736;30.568;2022-11-03T05:34:50;101322.00;;;5.00
73937;BMP180;59249;59.736;30.568;2022-11-03T05:37:26;101330.00;;;5.00
73937;BMP180;59249;59.736;30.568;2022-11-03T05:39:58;101328.00;;;4.90
73937;BMP180;59249;59.736;30.568;2022-11-03T05:42:33;101335.00;;;5.00
73937;BMP180;59249;59.736;30.568;2022-11-03T05:45:14;101325.00;;;4.90
73937;BMP180;59249;59.736;30.568;2022-11-03T05:47:48;101333.00;;;4.90
73937;BMP180;59249;59.736;30.568;2022-11-03T05:50:22;101337.00;;;4.90
73937;BMP180;59249;59.736;30.568;2022-11-03T05:53:02;101334.00;;;4.90
73937;BMP180;59249;59.736;30.568;2022-11-03T05:55:39;101337.00;;;4.80
73937;BMP180;59249;59.736;30.568;2022-11-03T05:58:15;101331.00;;;4.80
73937;BMP180;59249;59.736;30.568;2022-11-03T06:00:51;101334.00;;;4.90
73937;BMP180;59249;59.736;30.568;2022-11-03T06:03:23;101338.00;;;4.90
73937;BMP180;59249;59.736;30.568;2022-11-03T06:05:55;101338.00;;;4.80
73937;BMP180;59249;59.736;30.568;2022-11-03T06:08:29;101343.00;;;4.80
73937;BMP180;59249;59.736;30.568;2022-11-03T06:11:02;101347.00;;;4.90
73937;BMP180;59249;59.736;30.568;2022-11-03T06:13:33;101340.00;;;4.90
73937;BMP180;59249;59.736;30.568;2022-11-03T06:16:14;101355.00;;;4.90
73937;BMP180;59249;59.736;30.568;2022-11-03T06:19:14;101359.00;;;4.90
73937;BMP180;59249;59.736;30.568;2022-11-03T06:21:54;101356.00;;;4.90
73937;BMP180;59249;59.736;30.568;2022-11-03T06:24:28;101357.00;;;4.90
73937;BMP180;59249;59.736;30.568;2022-11-03T06:26:58;101356.00;;;4.80
73937;BMP180;59249;59.736;30.568;2022-11-03T06:29:29;101363.00;;;4.80
73937;BMP180;59249;59.736;30.568;2022-11-03T06:32:01;101366.00;;;4.80
73937;BMP180;59249;59.736;30.568;2022-11-03T06:34:36;101360.00;;;4.90
73937;BMP180;59249;59.736;30.568;2022-11-03T06:37:20;101362.00;;;5.00
73937;BMP180;59249;59.736;30.568;2022-11-03T06:39:57;101365.00;;;5.10
73937;BMP180;59249;59.736;30.568;2022-11-03T06:42:31;101366.00;;;5.00
73937;BMP180;59249;59.736;30.568;2022-11-03T06:45:00;101369.00;;;4.90
73937;BMP180;59249;59.736;30.568;2022-11-03T06:47:41;101379.00;;;5.00
73937;BMP180;59249;59.736;30.568;2022-11-03T06:50:20;101371.00;;;4.90
73937;BMP180;59249;59.736;30.568;2022-11-03T06:52:52;101372.00;;;4.90
73937;BMP180;59249;59.736;30.568;2022-11-03T06:55:24;101380.00;;;4.80
73937;BMP180;59249;59.736;30.568;2022-11-03T06:57:57;101381.00;;;4.90
73937;BMP180;59249;59.736;30.568;2022-11-03T07:00:29;101381.00;;;4.90
73937;BMP180;59249;59.736;30.568;2022-11-03T07:03:06;101380.00;;;4.80
73937;BMP180;59249;59.736;30.568;2022-11-03T07:05:38;101378.00;;;4.80
73937;BMP180;59249;59.736;30.568;2022-11-03T07:08:17;101388.00;;;4.90
73937;BMP180;59249;59.736;30.568;2022-11-03T07:10:50;101386.00;;;4.90
73937;BMP180;59249;59.736;30.568;2022-11-03T07:13:28;101399.00;;;5.00
73937;BMP180;59249;59.736;30.568;2022-11-03T07:15:59;101390.00;;;5.10
73937;BMP180;59249;59.736;30.568;2022-11-03T07:18:33;101388.00;;;5.00
73937;BMP180;59249;59.736;30.568;2022-11-03T07:21:05;101390.00;;;5.10
73937;BMP180;59249;59.736;30.568;2022-11-03T07:23:50;101383.00;;;4.90
73937;BMP180;59249;59.736;30.568;2022-11-03T07:26:20;101392.00;;;5.00
73937;BMP180;59249;59.736;30.568;2022-11-03T07:28:49;101387.00;;;4.90
73937;BMP180;59249;59.736;30.568;2022-11-03T07:31:21;101399.00;;;5.00
73937;BMP180;59249;59.736;30.568;2022-11-03T07:33:56;101395.00;;;5.00
73937;BMP180;59249;59.736;30.568;2022-11-03T07:36:29;101388.00;;;4.90
73937;BMP180;59249;59.736;30.568;2022-11-03T07:39:00;101392.00;;;4.90
73937;BMP180;59249;59.736;30.568;2022-11-03T07:41:31;101392.00;;;5.00
73937;BMP180;59249;59.736;30.568;2022-11-03T07:44:02;101393.00;;;5.00
73937;BMP180;59249;59.736;30.568;2022-11-03T07:46:30;101394.00;;;5.00
73937;BMP180;59249;59.736;30.568;2022-11-03T07:49:01;101389.00;;;5.10
73937;BMP180;59249;59.736;30.568;2022-11-03T07:51:31;101401.00;;;5.10
73937;BMP180;59249;59.736;30.568;2022-11-03T07:54:02;101398.00;;;5.10
73937;BMP180;59249;59.736;30.568;2022-11-03T07:56:42;101388.00;;;5.00
73937;BMP180;59249;59.736;30.568;2022-11-03T07:59:16;101394.00;;;5.10
73937;BMP180;59249;59.736;30.568;2022-11-03T08:01:48;101396.00;;;5.20
73937;BMP180;59249;59.736;30.568;2022-11-03T08:04:22;101402.00;;;5.30
73937;BMP180;59249;59.736;30.568;2022-11-03T08:06:53;101397.00;;;5.20
73937;BMP180;59249;59.736;30.568;2022-11-03T08:09:22;101390.00;;;5.20
73937;BMP180;59249;59.736;30.568;2022-11-03T08:11:50;101399.00;;;5.30
73937;BMP180;59249;59.736;30.568;2022-11-03T08:14:19;101390.00;;;5.30
73937;BMP180;59249;59.736;30.568;2022-11-03T08:16:48;101392.00;;;5.20
73937;BMP180;59249;59.736;30.568;2022-11-03T08:19:17;101389.00;;;5.10
73937;BMP180;59249;59.736;30.568;2022-11-03T08:21:47;101395.00;;;5.10
73937;BMP180;59249;59.736;30.568;2022-11-03T08:24:16;101392.00;;;5.20
73937;BMP180;59249;59.736;30.568;2022-11-03T08:26:44;101392.00;;;5.20
73937;BMP180;59249;59.736;30.568;2022-11-03T08:29:13;101399.00;;;5.20
73937;BMP180;59249;59.736;30.568;2022-11-03T08:31:43;101396.00;;;5.30
73937;BMP180;59249;59.736;30.568;2022-11-03T08:34:12;101395.00;;;5.20
73937;BMP180;59249;59.736;30.568;2022-11-03T08:36:41;101396.00;;;5.20
73937;BMP180;59249;59.736;30.568;2022-11-03T08:39:11;101392.00;;;5.20
73937;BMP180;59249;59.736;30.568;2022-11-03T08:41:40;101398.00;;;5.20
73937;BMP180;59249;59.736;30.568;2022-11-03T08:44:08;101394.00;;;5.10
73937;BMP180;59249;59.736;30.568;2022-11-03T08:46:37;101392.00;;;5.20
73937;BMP180;59249;59.736;30.568;2022-11-03T08:49:06;101400.00;;;5.10
73937;BMP180;59249;59.736;30.568;2022-11-03T08:51:35;101395.00;;;5.00
73937;BMP180;59249;59.736;30.568;2022-11-03T08:54:11;101401.00;;;5.00
73937;BMP180;59249;59.736;30.568;2022-11-03T08:56:40;101402.00;;;5.10
73937;BMP180;59249;59.736;30.568;2022-11-03T08:59:09;101404.00;;;5.10
73937;BMP180;59249;59.736;30.568;2022-11-03T09:01:38;101412.00;;;5.20
73937;BMP180;59249;59.736;30.568;2022-11-03T09:04:07;101398.00;;;5.20
73937;BMP180;59249;59.736;30.568;2022-11-03T09:06:36;101397.00;;;5.00
73937;BMP180;59249;59.736;30.568;2022-11-03T09:09:04;101400.00;;;5.00
73937;BMP180;59249;59.736;30.568;2022-11-03T09:11:54;101398.00;;;5.10
73937;BMP180;59249;59.736;30.568;2022-11-03T09:14:23;101397.00;;;5.10
73937;BMP180;59249;59.736;30.568;2022-11-03T09:16:52;101396.00;;;5.00
73937;BMP180;59249;59.736;30.568;2022-11-03T09:19:21;101390.00;;;4.90
73937;BMP180;59249;59.736;30.568;2022-11-03T09:21:49;101398.00;;;4.90
73937;BMP180;59249;59.736;30.568;2022-11-03T09:24:18;101396.00;;;5.00
73937;BMP180;59249;59.736;30.568;2022-11-03T09:26:47;101396.00;;;5.00
73937;BMP180;59249;59.736;30.568;2022-11-03T09:29:17;101403.00;;;5.00
73937;BMP180;59249;59.736;30.568;2022-11-03T09:31:46;101394.00;;;5.20
73937;BMP180;59249;59.736;30.568;2022-11-03T09:34:15;101403.00;;;5.10
73937;BMP180;59249;59.736;30.568;2022-11-03T09:36:44;101403.00;;;5.10
73937;BMP180;59249;59.736;30.568;2022-11-03T09:39:19;101394.00;;;5.20
73937;BMP180;59249;59.736;30.568;2022-11-03T09:41:48;101391.00;;;5.20
73937;BMP180;59249;59.736;30.568;2022-11-03T09:44:27;101398.00;;;5.10
73937;BMP180;59249;59.736;30.568;2022-11-03T09:46:57;101403.00;;;5.20
73937;BMP180;59249;59.736;30.568;2022-11-03T09:49:27;101399.00;;;5.20
73937;BMP180;59249;59.736;30.568;2022-11-03T09:52:01;101396.00;;;5.20
73937;BMP180;59249;59.736;30.568;2022-11-03T09:54:31;101389.00;;;5.20
73937;BMP180;59249;59.736;30.568;2022-11-03T09:57:08;101395.00;;;5.20
73937;BMP180;59249;59.736;30.568;2022-11-03T09:59:42;101400.00;;;5.20
73937;BMP180;59249;59.736;30.568;2022-11-03T10:02:19;101401.00;;;5.20
73937;BMP180;59249;59.736;30.568;2022-11-03T10:04:52;101402.00;;;5.30
73937;BMP180;59249;59.736;30.568;2022-11-03T10:07:25;101399.00;;;5.40
73937;BMP180;59249;59.736;30.568;2022-11-03T10:09:57;101407.00;;;5.30
73937;BMP180;59249;59.736;30.568;2022-11-03T10:12:31;101398.00;;;5.20
73937;BMP180;59249;59.736;30.568;2022-11-03T10:15:08;101403.00;;;5.30
73937;BMP180;59249;59.736;30.568;2022-11-03T10:17:41;101403.00;;;5.40
73937;BMP180;59249;59.736;30.568;2022-11-03T10:20:13;101402.00;;;5.40
73937;BMP180;59249;59.736;30.568;2022-11-03T10:22:45;101395.00;;;5.40
73937;BMP180;59249;59.736;30.568;2022-11-03T10:25:43;101409.00;;;5.50
73937;BMP180;59249;59.736;30.568;2022-11-03T10:28:18;101410.00;;;5.40
73937;BMP180;59249;59.736;30.568;2022-11-03T10:30:55;101406.00;;;5.50
73937;BMP180;59249;59.736;30.568;2022-11-03T10:33:50;101406.00;;;5.40
73937;BMP180;59249;59.736;30.568;2022-11-03T10:36:22;101405.00;;;5.40
73937;BMP180;59249;59.736;30.568;2022-11-03T10:38:53;101412.00;;;5.40
73937;BMP180;59249;59.736;30.568;2022-11-03T10:41:23;101404.00;;;5.30
73937;BMP180;59249;59.736;30.568;2022-11-03T10:44:01;101408.00;;;5.40
73937;BMP180;59249;59.736;30.568;2022-11-03T10:46:36;101400.00;;;5.40
73937;BMP180;59249;59.736;30.568;2022-11-03T10:49:20;101414.00;;;5.30
73937;BMP180;59249;59.736;30.568;2022-11-03T10:51:52;101399.00;;;5.40
73937;BMP180;59249;59.736;30.568;2022-11-03T10:54:22;101406.00;;;5.40
73937;BMP180;59249;59.736;30.568;2022-11-03T10:56:52;101396.00;;;5.40
73937;BMP180;59249;59.736;30.568;2022-11-03T10:59:24;101398.00;;;5.40
73937;BMP180;59249;59.736;30.568;2022-11-03T11:01:59;101395.00;;;5.50
73937;BMP180;59249;59.736;30.568;2022-11-03T11:04:31;101399.00;;;5.20
73937;BMP180;59249;59.736;30.568;2022-11-03T11:07:00;101400.00;;;5.20
73937;BMP180;59249;59.736;30.568;2022-11-03T11:09:29;101398.00;;;5.20
73937;BMP180;59249;59.736;30.568;2022-11-03T11:12:04;101390.00;;;5.20
73937;BMP180;59249;59.736;30.568;2022-11-03T11:14:51;101390.00;;;5.20
73937;BMP180;59249;59.736;30.568;2022-11-03T11:17:43;101398.00;;;5.10
73937;BMP180;59249;59.736;30.568;2022-11-03T11:23:44;101390.00;;;4.90
73937;BMP180;59249;59.736;30.568;2022-11-03T11:38:57;101376.00;;;4.40
73937;BMP180;59249;59.736;30.568;2022-11-03T11:42:05;101380.00;;;4.40
73937;BMP180;59249;59.736;30.568;2022-11-03T11:44:51;101377.00;;;4.50
73937;BMP180;59249;59.736;30.568;2022-11-03T11:47:42;101383.00;;;4.40
73937;BMP180;59249;59.736;30.568;2022-11-03T11:50:30;101391.00;;;4.40
73937;BMP180;59249;59.736;30.568;2022-11-03T11:55:57;101392.00;;;4.50
73937;BMP180;59249;59.736;30.568;2022-11-03T11:58:34;101390.00;;;4.50
73937;BMP180;59249;59.736;30.568;2022-11-03T12:01:20;101398.00;;;4.40
73937;BMP180;59249;59.736;30.568;2022-11-03T12:03:53;101393.00;;;4.40
73937;BMP180;59249;59.736;30.568;2022-11-03T12:06:35;101409.00;;;4.30
73937;BMP180;59249;59.736;30.568;2022-11-03T12:09:07;101401.00;;;4.30
73937;BMP180;59249;59.736;30.568;2022-11-03T12:11:44;101398.00;;;4.00
73937;BMP180;59249;59.736;30.568;2022-11-03T12:14:23;101403.00;;;4.00
73937;BMP180;59249;59.736;30.568;2022-11-03T12:16:53;101404.00;;;4.00
73937;BMP180;59249;59.736;30.568;2022-11-03T12:19:39;101394.00;;;4.00
73937;BMP180;59249;59.736;30.568;2022-11-03T12:22:16;101395.00;;;3.90
73937;BMP180;59249;59.736;30.568;2022-11-03T12:25:31;101409.00;;;4.00
73937;BMP180;59249;59.736;30.568;2022-11-03T12:28:02;101408.00;;;3.90
73937;BMP180;59249;59.736;30.568;2022-11-03T12:30:31;101411.00;;;3.90
73937;BMP180;59249;59.736;30.568;2022-11-03T12:33:06;101413.00;;;3.70
73937;BMP180;59249;59.736;30.568;2022-11-03T12:35:37;101415.00;;;3.80
73937;BMP180;59249;59.736;30.568;2022-11-03T12:38:07;101409.00;;;3.70
73937;BMP180;59249;59.736;30.568;2022-11-03T12:40:35;101415.00;;;3.60
73937;BMP180;59249;59.736;30.568;2022-11-03T12:43:04;101413.00;;;3.60
73937;BMP180;59249;59.736;30.568;2022-11-03T12:45:33;101416.00;;;3.60
73937;BMP180;59249;59.736;30.568;2022-11-03T12:48:02;101421.00;;;3.60
73937;BMP180;59249;59.736;30.568;2022-11-03T12:50:32;101414.00;;;3.70
73937;BMP180;59249;59.736;30.568;2022-11-03T12:53:00;101417.00;;;3.60
73937;BMP180;59249;59.736;30.568;2022-11-03T12:55:31;101417.00;;;3.60
73937;BMP180;59249;59.736;30.568;2022-11-03T12:58:00;101427.00;;;3.40
73937;BMP180;59249;59.736;30.568;2022-11-03T13:00:30;101423.00;;;3.40
73937;BMP180;59249;59.736;30.568;2022-11-03T13:02:58;101426.00;;;3.30
73937;BMP180;59249;59.736;30.568;2022-11-03T13:05:27;101422.00;;;3.20
73937;BMP180;59249;59.736;30.568;2022-11-03T13:07:56;101429.00;;;3.20
73937;BMP180;59249;59.736;30.568;2022-11-03T13:10:25;101427.00;;;3.20
73937;BMP180;59249;59.736;30.568;2022-11-03T13:12:55;101426.00;;;3.20
73937;BMP180;59249;59.736;30.568;2022-11-03T13:15:24;101426.00;;;3.20
73937;BMP180;59249;59.736;30.568;2022-11-03T13:17:52;101415.00;;;2.90
73937;BMP180;59249;59.736;30.568;2022-11-03T13:20:39;101420.00;;;2.90
73937;BMP180;59249;59.736;30.568;2022-11-03T13:23:11;101425.00;;;3.10
73937;BMP180;59249;59.736;30.568;2022-11-03T13:25:46;101428.00;;;3.00
73937;BMP180;59249;59.736;30.568;2022-11-03T13:28:16;101429.00;;;3.10
73937;BMP180;59249;59.736;30.568;2022-11-03T13:30:45;101429.00;;;3.00
73937;BMP180;59249;59.736;30.568;2022-11-03T13:33:15;101420.00;;;3.00
73937;BMP180;59249;59.736;30.568;2022-11-03T13:35:44;101413.00;;;3.00
73937;BMP180;59249;59.736;30.568;2022-11-03T13:38:12;101416.00;;;2.90
73937;BMP180;59249;59.736;30.568;2022-11-03T13:40:41;101421.00;;;2.90
73937;BMP180;59249;59.736;30.568;2022-11-03T13:43:31;101422.00;;;2.90
73937;BMP180;59249;59.736;30.568;2022-11-03T13:46:00;101427.00;;;2.80
73937;BMP180;59249;59.736;30.568;2022-11-03T13:48:31;101419.00;;;2.70
73937;BMP180;59249;59.736;30.568;2022-11-03T13:51:20;101421.00;;;2.70
73937;BMP180;59249;59.736;30.568;2022-11-03T13:53:48;101429.00;;;2.60
73937;BMP180;59249;59.736;30.568;2022-11-03T13:56:37;101432.00;;;2.70
73937;BMP180;59249;59.736;30.568;2022-11-03T13:59:28;101436.00;;;2.60
73937;BMP180;59249;59.736;30.568;2022-11-03T14:01:56;101435.00;;;2.60
73937;BMP180;59249;59.736;30.568;2022-11-03T14:04:45;101439.00;;;2.70
73937;BMP180;59249;59.736;30.568;2022-11-03T14:07:14;101442.00;;;2.70
73937;BMP180;59249;59.736;30.568;2022-11-03T14:09:43;101439.00;;;2.70
73937;BMP180;59249;59.736;30.568;2022-11-03T14:12:12;101439.00;;;2.70
73937;BMP180;59249;59.736;30.568;2022-11-03T14:15:01;101442.00;;;2.60
73937;BMP180;59249;59.736;30.568;2022-11-03T14:17:31;101438.00;;;2.50
73937;BMP180;59249;59.736;30.568;2022-11-03T14:20:00;101445.00;;;2.60
73937;BMP180;59249;59.736;30.568;2022-11-03T14:22:31;101449.00;;;2.60
73937;BMP180;59249;59.736;30.568;2022-11-03T14:25:00;101449.00;;;2.60
73937;BMP180;59249;59.736;30.568;2022-11-03T14:27:29;101452.00;;;2.70
73937;BMP180;59249;59.736;30.568;2022-11-03T14:29:58;101451.00;;;2.60
73937;BMP180;59249;59.736;30.568;2022-11-03T14:32:29;101443.00;;;2.60
73937;BMP180;59249;59.736;30.568;2022-11-03T14:34:58;101446.00;;;2.50
73937;BMP180;59249;59.736;30.568;2022-11-03T14:37:29;101442.00;;;2.60
73937;BMP180;59249;59.736;30.568;2022-11-03T14:39:58;101446.00;;;2.60
73937;BMP180;59249;59.736;30.568;2022-11-03T14:42:27;101446.00;;;2.60
73937;BMP180;59249;59.736;30.568;2022-11-03T14:44:55;101449.00;;;2.70
73937;BMP180;59249;59.736;30.568;2022-11-03T14:47:25;101444.00;;;2.70
73937;BMP180;59249;59.736;30.568;2022-11-03T14:49:57;101446.00;;;2.60
73937;BMP180;59249;59.736;30.568;2022-11-03T14:52:26;101458.00;;;2.70
73937;BMP180;59249;59.736;30.568;2022-11-03T14:54:55;101458.00;;;2.70